Time;durP1;ratioP1;P1;durP2;ratioP2;P2;SDS_P1;SDS_P2;PMS_P1;PMS_P2;Temp;Humidity;BMP_temperature;BMP_pressure;BME280_temperature;BME280_humidity;BME280_pressure;Samples;Min_cycle;Max_cycle;Signal;HPM_P1;HPM_P2
2022/11/13 00:01:32;;;;;;;21.13;10.75;;;;;;;4.18;100.00;102369.69;6021196;28;20110;-68
2022/11/13 00:04:27;;;;;;;21.90;10.07;;;;;;;4.13;100.00;102378.72;6021938;28;20038;-68
2022/11/13 00:07:23;;;;;;;23.07;10.37;;;;;;;4.13;100.00;102360.34;6021544;28;20037;-67
2022/11/13 00:10:18;;;;;;;26.40;11.80;;;;;;;4.02;100.00;102360.75;6021706;28;20165;-68
2022/11/13 00:13:13;;;;;;;18.40;9.67;;;;;;;4.25;100.00;102351.06;6021845;28;20030;-67
2022/11/13 00:16:11;;;;;;;29.13;11.50;;;;;;;4.05;100.00;102362.44;6021681;28;20030;-68
2022/11/13 00:19:06;;;;;;;28.67;11.38;;;;;;;4.12;100.00;102356.88;6021785;28;20050;-68
2022/11/13 00:22:02;;;;;;;22.77;10.67;;;;;;;3.99;100.00;102350.44;6020709;28;20410;-68
2022/11/13 00:24:57;;;;;;;24.15;11.40;;;;;;;3.98;100.00;102345.22;6021390;28;20478;-68
2022/11/13 00:27:54;;;;;;;26.73;11.47;;;;;;;3.90;100.00;102363.91;6021532;28;20023;-68
2022/11/13 00:30:49;;;;;;;27.00;12.55;;;;;;;3.82;100.00;102346.78;6021080;28;20112;-68
2022/11/13 00:33:44;;;;;;;27.15;11.95;;;;;;;3.78;100.00;102355.69;6021707;28;20522;-68
2022/11/13 00:36:40;;;;;;;24.57;11.47;;;;;;;3.70;100.00;102337.63;6021175;28;20046;-67
2022/11/13 00:39:35;;;;;;;23.57;11.10;;;;;;;3.72;100.00;102334.97;6021729;28;20328;-68
2022/11/13 00:42:30;;;;;;;24.80;11.87;;;;;;;3.66;100.00;102338.69;6020566;28;20033;-67
2022/11/13 00:45:26;;;;;;;27.83;11.30;;;;;;;3.66;100.00;102335.19;6021702;28;20061;-67
2022/11/13 00:48:21;;;;;;;25.92;11.93;;;;;;;3.65;100.00;102346.59;6021211;28;20030;-68
2022/11/13 00:51:18;;;;;;;22.52;11.40;;;;;;;3.53;100.00;102324.38;6020200;28;20501;-67
2022/11/13 00:54:13;;;;;;;30.15;13.32;;;;;;;3.58;100.00;102333.75;6021454;28;20065;-68
2022/11/13 00:57:09;;;;;;;26.37;11.97;;;;;;;3.59;100.00;102337.19;6021155;28;20034;-68
2022/11/13 01:00:05;;;;;;;31.08;13.25;;;;;;;3.63;100.00;102333.56;6020790;28;20034;-68
2022/11/13 01:03:00;;;;;;;29.75;13.23;;;;;;;3.48;100.00;102321.91;6023526;28;20114;-68
2022/11/13 01:05:56;;;;;;;27.00;12.93;;;;;;;3.53;100.00;102326.97;6025722;28;20433;-68
2022/11/13 01:08:56;;;;;;;27.87;12.43;;;;;;;3.69;100.00;102338.56;6025893;28;20344;-68
2022/11/13 01:11:51;;;;;;;28.08;12.63;;;;;;;3.71;100.00;102336.72;6023659;28;20831;-69
2022/11/13 01:14:47;;;;;;;27.00;12.53;;;;;;;3.49;100.00;102321.00;6025463;28;20097;-68
2022/11/13 01:17:42;;;;;;;27.83;12.75;;;;;;;3.54;100.00;102334.78;6025881;28;20022;-67
2022/11/13 01:20:37;;;;;;;23.47;12.13;;;;;;;3.56;100.00;102324.25;6025007;28;20061;-68
2022/11/13 01:23:34;;;;;;;24.03;11.33;;;;;;;3.54;100.00;102311.16;6025462;28;20055;-68
2022/11/13 01:26:29;;;;;;;30.73;11.38;;;;;;;3.60;100.00;102316.19;6024648;28;20125;-67
2022/11/13 01:29:25;;;;;;;29.27;12.63;;;;;;;3.54;100.00;102313.78;6024826;28;20046;-68
2022/11/13 01:32:20;;;;;;;23.17;12.00;;;;;;;3.59;100.00;102295.25;6024418;28;20033;-68
2022/11/13 01:35:15;;;;;;;26.90;12.05;;;;;;;3.57;100.00;102313.69;6025027;28;20257;-68
2022/11/13 01:38:11;;;;;;;27.63;11.32;;;;;;;3.40;100.00;102287.28;6024975;28;20458;-68
2022/11/13 01:41:11;;;;;;;24.57;11.87;;;;;;;3.45;100.00;102314.16;6023937;28;20043;-67
2022/11/13 01:44:12;;;;;;;25.02;12.77;;;;;;;3.37;100.00;102297.88;6023870;28;20030;-67
2022/11/13 01:47:07;;;;;;;25.63;12.32;;;;;;;3.48;100.00;102298.31;6024976;28;20026;-68
2022/11/13 01:50:03;;;;;;;28.48;12.45;;;;;;;3.45;100.00;102298.41;6024326;28;20104;-68
2022/11/13 01:52:58;;;;;;;29.42;14.00;;;;;;;3.28;100.00;102277.28;6024348;28;20039;-68
2022/11/13 01:55:53;;;;;;;33.23;13.80;;;;;;;3.33;100.00;102292.81;6022894;28;20096;-67
2022/11/13 01:58:56;;;;;;;28.48;13.32;;;;;;;3.32;100.00;102288.47;6023147;28;20088;-68
2022/11/13 02:01:52;;;;;;;29.30;12.13;;;;;;;3.30;100.00;102280.69;6023550;28;20085;-68
2022/11/13 02:04:47;;;;;;;24.15;10.88;;;;;;;3.26;100.00;102271.22;6023400;28;20445;-67
2022/11/13 02:07:42;;;;;;;27.30;12.47;;;;;;;3.29;100.00;102272.91;6023934;28;20034;-68
2022/11/13 02:10:38;;;;;;;30.43;14.50;;;;;;;3.32;100.00;102273.63;6024068;28;20272;-69
2022/11/13 02:13:34;;;;;;;27.90;12.60;;;;;;;3.34;100.00;102271.78;6023144;28;20339;-68
2022/11/13 02:16:31;;;;;;;29.90;12.23;;;;;;;3.46;100.00;102287.03;6023997;28;20046;-67
2022/11/13 02:19:32;;;;;;;27.55;12.40;;;;;;;3.42;100.00;102277.59;6022782;28;20038;-68
2022/11/13 02:22:36;;;;;;;21.38;10.95;;;;;;;3.40;100.00;102275.91;6021224;28;20467;-68
2022/11/13 02:25:32;;;;;;;25.70;12.63;;;;;;;3.35;100.00;102278.75;6023891;28;20034;-68
2022/11/13 02:28:27;;;;;;;26.88;12.45;;;;;;;3.36;100.00;102280.47;6022155;28;20497;-68
2022/11/13 02:31:22;;;;;;;25.70;11.80;;;;;;;3.19;100.00;102271.53;6023159;28;20425;-67
2022/11/13 02:34:18;;;;;;;22.63;10.80;;;;;;;3.29;100.00;102284.22;6023903;28;20466;-67
2022/11/13 02:37:13;;;;;;;24.77;11.30;;;;;;;3.25;100.00;102287.91;6023387;28;20288;-70
2022/11/13 02:40:09;;;;;;;27.70;10.43;;;;;;;3.36;100.00;102288.31;6022815;28;20361;-68
2022/11/13 02:43:04;;;;;;;22.95;11.57;;;;;;;3.42;100.00;102280.22;6023110;28;20058;-68
2022/11/13 02:46:00;;;;;;;28.20;12.20;;;;;;;3.59;100.00;102267.25;6023507;28;20477;-68
2022/11/13 02:48:55;;;;;;;19.17;9.97;;;;;;;3.34;100.00;102279.66;6023786;28;20535;-67
2022/11/13 02:51:50;;;;;;;23.53;9.90;;;;;;;3.14;100.00;102279.59;6022587;28;20545;-68
2022/11/13 02:54:46;;;;;;;22.77;10.33;;;;;;;3.05;100.00;102287.81;6039048;28;20317;-68
2022/11/13 02:57:41;;;;;;;21.63;9.05;;;;;;;3.12;100.00;102273.56;6023415;28;20390;-68
2022/11/13 03:00:36;;;;;;;23.07;10.83;;;;;;;2.99;100.00;102291.50;6023271;28;20466;-68
2022/11/13 03:03:32;;;;;;;27.40;11.38;;;;;;;2.95;100.00;102283.84;6024041;28;20065;-67
2022/11/13 03:06:27;;;;;;;21.60;11.40;;;;;;;2.88;100.00;102277.97;6023216;28;20030;-67
2022/11/13 03:09:22;;;;;;;25.53;11.23;;;;;;;2.76;100.00;102267.13;6022848;28;20034;-67
2022/11/13 03:12:18;;;;;;;29.65;12.90;;;;;;;2.91;100.00;102277.84;6022177;28;20358;-68
2022/11/13 03:15:13;;;;;;;29.27;13.03;;;;;;;2.83;100.00;102263.34;6023245;28;20034;-68
2022/11/13 03:18:10;;;;;;;30.63;12.93;;;;;;;2.89;100.00;102274.44;6022621;28;20036;-69
2022/11/13 03:21:13;;;;;;;31.48;12.82;;;;;;;2.99;100.00;102267.06;6022066;28;20038;-68
2022/11/13 03:24:09;;;;;;;24.63;11.63;;;;;;;2.92;100.00;102283.97;6021300;28;20551;-67
2022/11/13 03:27:04;;;;;;;30.40;13.57;;;;;;;2.87;100.00;102264.94;6021908;28;20049;-68
2022/11/13 03:29:59;;;;;;;28.67;13.50;;;;;;;2.89;100.00;102274.44;6021216;28;20038;-68
2022/11/13 03:32:55;;;;;;;26.33;13.07;;;;;;;2.78;100.00;102255.66;6020746;28;20598;-70
2022/11/13 03:35:51;;;;;;;30.33;13.30;;;;;;;2.81;100.00;102258.19;6022306;28;20026;-67
2022/11/13 03:38:46;;;;;;;28.37;13.73;;;;;;;2.83;100.00;102253.72;6022175;28;20093;-67
2022/11/13 03:41:41;;;;;;;28.55;14.00;;;;;;;2.91;100.00;102256.03;6020246;28;20637;-68
2022/11/13 03:44:37;;;;;;;32.47;14.17;;;;;;;2.84;100.00;102246.72;6022656;28;20109;-68
2022/11/13 03:47:32;;;;;;;27.27;12.20;;;;;;;2.79;100.00;102251.28;6022445;28;20292;-67
2022/11/13 03:50:27;;;;;;;30.25;13.40;;;;;;;2.85;100.00;102261.53;6024829;28;20367;-68
2022/11/13 03:53:23;;;;;;;32.03;13.32;;;;;;;2.79;100.00;102256.53;6022229;28;20034;-69
2022/11/13 03:56:18;;;;;;;32.58;14.15;;;;;;;2.71;100.00;102248.97;6020639;28;20054;-67
2022/11/13 03:59:13;;;;;;;33.30;14.47;;;;;;;2.77;100.00;102242.66;6022229;28;20053;-67
2022/11/13 04:02:09;;;;;;;30.97;14.47;;;;;;;2.75;100.00;102254.91;6021189;28;20333;-68
2022/11/13 04:05:06;;;;;;;36.67;16.03;;;;;;;2.76;100.00;102246.16;6021826;28;20050;-70
2022/11/13 04:08:03;;;;;;;30.25;14.43;;;;;;;2.67;100.00;102246.50;6021711;28;20038;-69
2022/11/13 04:11:09;;;;;;;32.17;13.95;;;;;;;2.64;100.00;102250.09;6021407;28;20034;-70
2022/11/13 04:14:04;;;;;;;29.25;13.30;;;;;;;2.62;100.00;102257.16;6021811;28;20030;-69
2022/11/13 04:16:59;;;;;;;33.83;14.60;;;;;;;2.48;100.00;102235.00;6021433;28;20553;-69
2022/11/13 04:19:55;;;;;;;32.70;13.10;;;;;;;2.51;100.00;102229.66;6021935;28;20081;-71
2022/11/13 04:22:50;;;;;;;32.30;14.02;;;;;;;2.53;100.00;102225.25;6021026;28;20026;-70
2022/11/13 04:25:47;;;;;;;40.80;16.80;;;;;;;2.50;100.00;102235.84;6021135;28;20042;-69
2022/11/13 04:28:42;;;;;;;42.28;17.75;;;;;;;2.52;100.00;102236.63;6021392;28;20309;-69
2022/11/13 04:31:38;;;;;;;36.23;16.23;;;;;;;2.36;100.00;102226.69;6020841;28;20031;-70
2022/11/13 04:34:33;;;;;;;33.87;13.53;;;;;;;2.42;100.00;102230.03;6022087;28;20034;-69
2022/11/13 04:37:28;;;;;;;27.97;13.83;;;;;;;2.42;100.00;102234.34;6023063;28;20030;-70
2022/11/13 04:40:24;;;;;;;34.70;14.10;;;;;;;2.44;100.00;102233.44;6025513;28;20453;-70
2022/11/13 04:43:19;;;;;;;30.00;14.00;;;;;;;2.36;100.00;102231.94;6025935;28;20053;-70
2022/11/13 04:46:14;;;;;;;30.37;12.97;;;;;;;2.11;100.00;102204.97;6026042;28;20084;-69
2022/11/13 04:49:09;;;;;;;26.50;13.63;;;;;;;2.15;100.00;102219.66;6026284;28;20041;-69
2022/11/13 04:52:05;;;;;;;31.10;12.90;;;;;;;2.13;100.00;102211.00;6025417;28;20080;-70
2022/11/13 04:55:00;;;;;;;36.70;14.10;;;;;;;2.14;100.00;102210.09;6026022;28;20034;-70
2022/11/13 04:57:56;;;;;;;41.60;17.20;;;;;;;2.07;100.00;102200.75;6025866;28;20035;-69
2022/11/13 05:00:51;;;;;;;46.17;18.47;;;;;;;2.12;100.00;102206.66;6025152;28;20421;-70
2022/11/13 05:03:46;;;;;;;39.53;17.13;;;;;;;2.18;100.00;102198.59;6026013;28;20281;-70
2022/11/13 05:06:42;;;;;;;30.93;14.20;;;;;;;2.18;100.00;102200.38;6025881;28;20426;-70
2022/11/13 05:09:37;;;;;;;37.13;16.77;;;;;;;2.21;100.00;102206.34;6025525;28;20034;-70
2022/11/13 05:12:32;;;;;;;38.20;15.40;;;;;;;2.14;100.00;102198.78;6024852;28;20042;-70
2022/11/13 05:15:28;;;;;;;31.70;14.30;;;;;;;2.19;100.00;102202.94;6025546;28;20052;-70
2022/11/13 05:18:24;;;;;;;37.88;16.50;;;;;;;2.18;100.00;102198.59;6026075;28;20099;-69
2022/11/13 05:21:19;;;;;;;36.78;14.90;;;;;;;2.07;100.00;102177.22;6025019;28;20062;-69
2022/11/13 05:24:14;;;;;;;33.87;15.90;;;;;;;2.05;100.00;102189.50;6025151;28;20036;-69
2022/11/13 05:27:10;;;;;;;33.03;15.07;;;;;;;2.08;100.00;102199.84;6025186;28;20034;-69
2022/11/13 05:30:07;;;;;;;32.73;14.63;;;;;;;1.93;100.00;102184.69;6024022;28;20382;-69
2022/11/13 05:33:03;;;;;;;41.97;16.35;;;;;;;2.00;100.00;102191.44;6025201;28;20076;-69
2022/11/13 05:36:07;;;;;;;37.37;16.60;;;;;;;2.02;100.00;102193.97;6025075;28;20466;-69
2022/11/13 05:39:03;;;;;;;30.45;14.05;;;;;;;1.99;100.00;102192.34;6025311;28;20807;-70
2022/11/13 05:41:58;;;;;;;37.10;15.75;;;;;;;2.01;100.00;102193.13;6024508;28;20050;-69
2022/11/13 05:44:53;;;;;;;33.77;15.73;;;;;;;1.97;100.00;102181.06;6025014;28;20092;-70
2022/11/13 05:47:49;;;;;;;35.07;13.70;;;;;;;1.99;100.00;102188.84;6024908;28;20030;-69
2022/11/13 05:50:44;;;;;;;29.88;13.48;;;;;;;2.03;100.00;102175.63;6023705;28;20034;-69
2022/11/13 05:53:40;;;;;;;31.33;14.20;;;;;;;1.95;100.00;102179.44;6024834;28;20555;-69
2022/11/13 05:56:36;;;;;;;27.70;13.93;;;;;;;1.96;100.00;102179.34;6024586;28;20286;-69
2022/11/13 05:59:31;;;;;;;34.85;14.02;;;;;;;1.84;100.00;102179.81;6024508;28;20038;-69
2022/11/13 06:02:26;;;;;;;38.47;14.87;;;;;;;1.93;100.00;102194.34;6024255;28;20026;-69
2022/11/13 06:05:21;;;;;;;31.17;13.07;;;;;;;1.87;100.00;102190.16;6024625;28;20026;-69
2022/11/13 06:08:17;;;;;;;35.53;14.67;;;;;;;1.83;100.00;102175.47;6024963;28;20122;-69
2022/11/13 06:11:15;;;;;;;30.33;13.65;;;;;;;1.69;100.00;102167.25;6024063;28;20273;-69
2022/11/13 06:14:10;;;;;;;32.42;14.45;;;;;;;1.68;100.00;102181.25;6024455;28;20109;-69
2022/11/13 06:17:06;;;;;;;32.50;14.07;;;;;;;1.52;100.00;102160.00;6024805;28;20031;-70
2022/11/13 06:20:01;;;;;;;35.90;13.83;;;;;;;1.54;100.00;102170.44;6024488;28;20023;-69
2022/11/13 06:22:57;;;;;;;36.40;16.15;;;;;;;1.52;100.00;102167.00;6024563;28;20030;-69
2022/11/13 06:25:52;;;;;;;34.17;15.67;;;;;;;1.44;100.00;102153.38;6024772;28;20564;-69
2022/11/13 06:28:48;;;;;;;31.30;14.03;;;;;;;1.41;100.00;102143.00;6022941;28;20096;-69
2022/11/13 06:31:43;;;;;;;27.70;12.82;;;;;;;1.46;100.00;102169.84;6024126;28;20062;-69
2022/11/13 06:34:38;;;;;;;30.27;13.00;;;;;;;1.41;100.00;102156.06;6024276;28;20046;-69
2022/11/13 06:37:34;;;;;;;32.47;15.37;;;;;;;1.40;100.00;102165.66;6024427;28;20082;-69
2022/11/13 06:40:29;;;;;;;27.27;12.70;;;;;;;1.36;100.00;102150.16;6023879;28;20035;-68
2022/11/13 06:43:24;;;;;;;32.00;15.77;;;;;;;1.38;100.00;102157.03;6023956;28;20092;-68
2022/11/13 06:46:26;;;;;;;30.15;13.40;;;;;;;1.39;100.00;102163.09;6024022;28;20033;-68
2022/11/13 06:49:21;;;;;;;34.10;14.50;;;;;;;1.41;100.00;102170.00;6023877;28;20030;-67
2022/11/13 06:52:16;;;;;;;33.87;14.77;;;;;;;1.40;100.00;102162.19;6022462;28;20085;-67
2022/11/13 06:55:11;;;;;;;26.30;14.57;;;;;;;1.45;100.00;102175.94;6023730;28;20104;-67
2022/11/13 06:58:07;;;;;;;35.07;15.80;;;;;;;1.39;100.00;102158.72;6023940;28;20497;-68
2022/11/13 07:01:13;;;;;;;36.10;17.23;;;;;;;1.43;100.00;102156.88;6022829;28;20044;-67
2022/11/13 07:04:12;;;;;;;36.67;17.25;;;;;;;1.58;100.00;102175.47;6023630;28;20038;-67
2022/11/13 07:07:07;;;;;;;33.88;14.75;;;;;;;1.57;100.00;102186.00;6022985;28;20081;-68
2022/11/13 07:10:03;;;;;;;38.10;16.13;;;;;;;1.39;100.00;102165.69;6022304;28;20042;-68
2022/11/13 07:12:59;;;;;;;37.00;14.82;;;;;;;1.44;100.00;102180.31;6022843;28;20506;-67
2022/11/13 07:16:00;;;;;;;28.50;14.48;;;;;;;1.44;100.00;102187.34;6022852;28;20046;-67
2022/11/13 07:18:55;;;;;;;31.45;14.45;;;;;;;1.51;100.00;102188.81;6022307;28;20085;-67
2022/11/13 07:21:51;;;;;;;31.98;16.17;;;;;;;1.57;100.00;102191.22;6021437;28;20038;-67
2022/11/13 07:24:46;;;;;;;33.83;15.50;;;;;;;1.61;100.00;102195.44;6022851;28;20072;-67
2022/11/13 07:27:45;;;;;;;29.30;13.10;;;;;;;1.55;100.00;102193.88;6021734;28;20050;-68
2022/11/13 07:30:40;;;;;;;31.35;14.85;;;;;;;1.61;100.00;102193.69;6021616;28;20034;-68
2022/11/13 07:33:35;;;;;;;23.63;11.57;;;;;;;1.50;100.00;102189.72;6022147;28;20125;-68
2022/11/13 07:36:31;;;;;;;28.97;13.43;;;;;;;1.33;100.00;102176.38;6022681;28;20042;-68
2022/11/13 07:39:26;;;;;;;29.57;13.27;;;;;;;1.59;100.00;102202.47;6020212;28;20037;-67
2022/11/13 07:42:22;;;;;;;26.73;12.83;;;;;;;1.51;100.00;102197.53;6021841;28;20435;-67
2022/11/13 07:45:17;;;;;;;26.90;13.23;;;;;;;1.36;100.00;102189.34;6022280;28;20274;-68
2022/11/13 07:48:13;;;;;;;36.00;13.20;;;;;;;1.43;100.00;102181.25;6021558;28;20030;-67
2022/11/13 07:51:08;;;;;;;32.57;14.67;;;;;;;1.37;100.00;102177.97;6021007;28;20045;-67
2022/11/13 07:54:03;;;;;;;32.75;15.40;;;;;;;1.55;100.00;102193.06;6022129;28;20273;-68
2022/11/13 07:56:59;;;;;;;40.50;15.23;;;;;;;1.45;100.00;102183.78;6022433;28;20117;-67
2022/11/13 07:59:54;;;;;;;42.27;16.47;;;;;;;1.55;100.00;102177.38;6022108;28;20137;-67
2022/11/13 08:02:50;;;;;;;33.77;13.90;;;;;;;1.72;100.00;102175.88;6021668;28;20062;-67
2022/11/13 08:05:45;;;;;;;65.50;16.20;;;;;;;1.73;100.00;102180.19;6022578;28;20057;-67
2022/11/13 08:08:40;;;;;;;30.40;13.67;;;;;;;1.65;100.00;102168.28;6021375;28;20080;-67
2022/11/13 08:11:35;;;;;;;44.70;13.63;;;;;;;1.70;100.00;102168.97;6020829;28;20034;-67
2022/11/13 08:14:31;;;;;;;30.93;13.83;;;;;;;1.59;100.00;102158.03;6021389;28;20153;-66
2022/11/13 08:17:26;;;;;;;28.97;14.73;;;;;;;1.76;100.00;102166.16;6021975;28;20034;-67
2022/11/13 08:20:22;;;;;;;37.17;15.17;;;;;;;1.78;100.00;102166.94;6021126;28;20038;-67
2022/11/13 08:23:17;;;;;;;46.97;17.00;;;;;;;1.94;100.00;102177.72;6021358;28;20502;-67
2022/11/13 08:26:14;;;;;;;66.43;16.60;;;;;;;1.88;100.00;102181.41;6021610;28;20030;-67
2022/11/13 08:29:09;;;;;;;28.73;13.45;;;;;;;2.03;100.00;102175.63;6021187;28;20034;-66
2022/11/13 08:32:05;;;;;;;51.60;15.97;;;;;;;1.89;100.00;102167.44;6000623;28;20529;-67
2022/11/13 08:35:00;;;;;;;38.17;14.18;;;;;;;1.74;100.00;102168.81;6028116;28;20273;-66
2022/11/13 08:38:03;;;;;;;71.57;14.90;;;;;;;1.83;100.00;102187.69;6021390;28;20537;-67
2022/11/13 08:41:01;;;;;;;55.63;17.00;;;;;;;1.79;100.00;102171.28;6020209;28;20316;-67
2022/11/13 08:43:56;;;;;;;69.07;18.00;;;;;;;1.97;100.00;102180.22;6020165;28;20030;-68
2022/11/13 08:46:52;;;;;;;69.10;16.60;;;;;;;1.87;100.00;102164.03;6020477;28;20494;-67
2022/11/13 08:49:47;;;;;;;66.80;17.80;;;;;;;2.05;100.00;102167.72;6020790;28;20470;-68
2022/11/13 08:52:42;;;;;;;41.43;16.40;;;;;;;2.19;100.00;102168.94;6020704;28;20104;-67
2022/11/13 08:55:37;;;;;;;57.67;15.77;;;;;;;2.25;100.00;102171.31;6021455;28;20065;-67
2022/11/13 08:58:33;;;;;;;54.93;15.77;;;;;;;2.37;100.00;102185.69;6025371;28;20121;-67
2022/11/13 09:01:28;;;;;;;63.33;15.73;;;;;;;2.48;100.00;102169.56;6020435;28;20085;-67
2022/11/13 09:04:25;;;;;;;50.23;16.27;;;;;;;2.46;100.00;102168.78;6020785;28;20039;-67
2022/11/13 09:07:20;;;;;;;46.30;14.25;;;;;;;2.61;100.00;102186.53;6017897;28;20310;-67
2022/11/13 09:10:17;;;;;;;38.80;14.40;;;;;;;2.69;100.00;102182.69;6015668;28;20116;-68
2022/11/13 09:13:13;;;;;;;47.67;16.58;;;;;;;2.71;100.00;102164.31;6016883;28;20085;-68
2022/11/13 09:16:08;;;;;;;63.42;18.15;;;;;;;2.73;100.00;102172.94;6021234;28;20034;-69
2022/11/13 09:19:04;;;;;;;74.57;18.10;;;;;;;2.69;100.00;102176.63;6020593;28;20037;-66
2022/11/13 09:21:59;;;;;;;41.60;15.77;;;;;;;2.73;100.00;102179.06;6020459;28;20478;-67
2022/11/13 09:24:55;;;;;;;56.80;18.73;;;;;;;2.77;100.00;102177.16;6023175;28;20046;-68
2022/11/13 09:27:55;;;;;;;59.47;18.87;;;;;;;2.76;100.00;102184.16;6025113;28;20058;-68
2022/11/13 09:30:50;;;;;;;65.15;18.35;;;;;;;2.89;100.00;102180.16;6020740;28;20038;-69
2022/11/13 09:33:45;;;;;;;44.93;16.17;;;;;;;3.03;100.00;102178.75;6024523;28;20852;-69
2022/11/13 09:36:41;;;;;;;51.47;15.37;;;;;;;3.13;100.00;102178.28;6023637;28;20030;-68
2022/11/13 09:39:36;;;;;;;54.73;19.70;;;;;;;2.99;100.00;102185.84;6025129;28;20583;-68
2022/11/13 09:42:34;;;;;;;59.87;17.63;;;;;;;3.05;100.00;102169.91;6024010;28;20550;-67
2022/11/13 09:45:30;;;;;;;48.63;16.95;;;;;;;3.33;100.00;102175.72;6025327;28;20106;-68
2022/11/13 09:48:32;;;;;;;44.17;15.13;;;;;;;3.42;100.00;102180.59;6022505;28;20720;-67
2022/11/13 09:51:28;;;;;;;;;;;;;;;3.48;100.00;102174.22;6023318;28;20045;-70
2022/11/13 09:54:23;;;;;;;47.53;15.93;;;;;;;3.64;100.00;102172.66;6022718;28;19917;-69
2022/11/13 09:57:40;;;;;;;54.83;16.65;;;;;;;3.67;100.00;102163.81;6024475;28;20045;-68
2022/11/13 10:00:35;;;;;;;49.10;14.43;;;;;;;3.84;100.00;102161.28;6022410;28;20046;-67
2022/11/13 10:03:45;;;;;;;47.97;16.73;;;;;;;4.04;100.00;102154.25;6024632;28;20041;-67
2022/11/13 10:07:12;;;;;;;45.90;15.70;;;;;;;4.50;100.00;102147.72;6023337;28;20109;-67
2022/11/13 10:10:15;;;;;;;41.78;15.13;;;;;;;4.68;100.00;102146.00;6038639;28;20034;-68
2022/11/13 10:13:14;;;;;;;40.00;16.85;;;;;;;4.53;100.00;102126.56;6024132;28;20034;-68
2022/11/13 10:16:36;;;;;;;51.97;17.75;;;;;;;4.73;100.00;102123.81;6023093;28;20042;-69
2022/11/13 10:20:00;;;;;;;47.30;16.60;;;;;;;4.94;100.00;102113.22;6020531;28;20034;-67
2022/11/13 10:23:01;;;;;;;46.13;18.30;;;;;;;5.01;100.00;102093.56;6023284;28;20136;-67
2022/11/13 10:26:08;;;;;;;42.67;15.50;;;;;;;5.04;100.00;102090.78;6023951;28;20389;-68
2022/11/13 10:29:18;;;;;;;41.80;16.92;;;;;;;5.22;100.00;102110.88;6022048;28;20034;-69
2022/11/13 10:32:25;;;;;;;44.95;16.73;;;;;;;5.44;100.00;102111.50;6019917;28;20027;-67
2022/11/13 10:35:27;;;;;;;39.08;16.15;;;;;;;5.63;100.00;102107.00;6021076;28;20042;-67
2022/11/13 10:38:41;;;;;;;36.13;15.48;;;;;;;5.66;100.00;102088.41;6023579;28;20445;-67
2022/11/13 10:41:48;;;;;;;38.80;14.43;;;;;;;5.81;100.00;102095.50;6021905;28;20031;-67
2022/11/13 10:44:52;;;;;;;40.60;15.70;;;;;;;6.02;100.00;102097.94;6023460;28;20045;-68
2022/11/13 10:47:49;;;;;;;32.10;13.35;;;;;;;6.10;100.00;102087.84;6011951;28;20053;-67
2022/11/13 10:50:52;;;;;;;35.67;14.95;;;;;;;6.34;100.00;102102.28;6022583;28;20042;-67
2022/11/13 10:53:49;;;;;;;32.83;13.00;;;;;;;6.45;100.00;102076.22;6013470;28;20136;-67
2022/11/13 10:56:55;;;;;;;36.63;13.90;;;;;;;6.63;100.00;102080.47;6023399;28;20041;-67
2022/11/13 10:59:51;;;;;;;31.80;13.50;;;;;;;6.66;100.00;102067.06;6023721;28;20046;-68
2022/11/13 11:02:49;;;;;;;34.87;13.77;;;;;;;6.69;100.00;102059.00;6022577;28;20034;-68
2022/11/13 11:05:59;;;;;;;37.33;14.70;;;;;;;6.79;100.00;102068.09;6022993;28;20281;-67
2022/11/13 11:09:04;;;;;;;28.77;12.52;;;;;;;6.76;100.00;102057.72;6023079;28;20060;-67
2022/11/13 11:12:15;;;;;;;34.92;13.93;;;;;;;6.88;100.00;102075.44;6022277;28;20038;-68
2022/11/13 11:15:31;;;;;;;34.25;13.50;;;;;;;6.86;100.00;102050.13;6022973;28;20034;-68
2022/11/13 11:18:31;;;;;;;32.30;13.40;;;;;;;6.78;100.00;102047.94;6021527;28;20030;-68
2022/11/13 11:21:31;;;;;;;39.33;14.75;;;;;;;6.79;100.00;102060.19;6021386;28;20030;-68
2022/11/13 11:24:32;;;;;;;33.13;13.15;;;;;;;6.78;100.00;102053.22;6022817;28;20533;-68
2022/11/13 11:27:33;;;;;;;38.95;14.32;;;;;;;6.86;100.00;102058.88;6021957;28;20023;-68
2022/11/13 11:30:35;;;;;;;34.70;13.48;;;;;;;6.89;100.00;102048.16;6022391;28;20191;-66
2022/11/13 11:33:47;;;;;;;36.42;13.82;;;;;;;6.84;100.00;102046.72;6021808;28;20180;-68
2022/11/13 11:36:49;;;;;;;35.15;16.13;;;;;;;6.75;100.00;102045.47;6020686;28;20042;-68
2022/11/13 11:39:57;;;;;;;37.35;14.65;;;;;;;6.81;100.00;102042.50;6022480;28;20127;-67
2022/11/13 11:43:17;;;;;;;33.53;13.35;;;;;;;6.78;100.00;102036.53;6020548;28;20117;-68
2022/11/13 11:46:16;;;;;;;;;;;;;;;6.86;100.00;102042.22;6022850;28;20035;-69
2022/11/13 11:49:12;;;;;;;34.50;13.52;;;;;;;6.88;100.00;102032.41;6036715;28;20388;-68
2022/11/13 11:52:36;;;;;;;34.78;13.02;;;;;;;7.07;100.00;102033.88;6021306;28;20089;-67
2022/11/13 11:55:50;;;;;;;37.75;14.48;;;;;;;7.05;100.00;102025.22;6017168;28;20477;-68
2022/11/13 11:58:57;;;;;;;31.20;12.75;;;;;;;7.15;100.00;102026.38;6012629;28;20037;-66
2022/11/13 12:01:55;;;;;;;;;;;;;;;7.22;100.00;102028.63;6021843;28;20034;-68
2022/11/13 12:05:15;;;;;;;31.58;12.27;;;;;;;7.18;100.00;102020.91;6021708;28;19918;-67
2022/11/13 12:08:16;;;;;;;38.15;16.98;;;;;;;7.05;100.00;102013.81;6022230;28;20500;-67
2022/11/13 12:11:22;;;;;;;31.58;13.32;;;;;;;7.00;100.00;102014.09;6021410;28;20129;-67
2022/11/13 12:14:24;;;;;;;32.03;11.85;;;;;;;6.97;100.00;102001.09;6021045;28;20106;-67
2022/11/13 12:17:44;;;;;;;38.55;14.10;;;;;;;6.85;100.00;101995.72;6021559;28;20049;-66
2022/11/13 12:20:50;;;;;;;36.35;14.88;;;;;;;6.82;100.00;101982.72;6017063;28;20042;-66
2022/11/13 12:23:58;;;;;;;48.38;22.63;;;;;;;6.72;100.00;102000.84;6020228;28;20482;-68
2022/11/13 12:27:28;;;;;;;42.42;16.63;;;;;;;6.78;100.00;101989.09;6014584;28;20662;-66
2022/11/13 12:30:50;;;;;;;40.95;20.85;;;;;;;6.81;100.00;102008.22;6013805;28;20046;-67
2022/11/13 12:33:51;;;;;;;36.58;14.88;;;;;;;6.79;100.00;102002.19;6020724;28;20042;-67
2022/11/13 12:36:47;;;;;;;46.33;16.10;;;;;;;6.70;100.00;101986.06;6020021;28;20042;-67
2022/11/13 12:39:50;;;;;;;41.33;15.43;;;;;;;6.58;100.00;101983.19;6019928;28;20490;-68
2022/11/13 12:42:50;;;;;;;38.63;16.25;;;;;;;6.72;100.00;102002.63;6021081;28;20454;-67
2022/11/13 12:45:58;;;;;;;38.90;15.98;;;;;;;6.71;100.00;101996.53;6009860;28;20097;-66
2022/11/13 12:48:53;;;;;;;35.83;16.27;;;;;;;6.67;100.00;101999.41;6021560;28;20463;-66
2022/11/13 12:51:57;;;;;;;43.73;16.20;;;;;;;6.50;100.00;101979.31;6007924;28;20050;-66
2022/11/13 12:55:03;;;;;;;38.50;15.18;;;;;;;6.44;100.00;101974.41;6021313;28;20124;-68
2022/11/13 12:58:26;;;;;;;41.08;15.75;;;;;;;6.52;100.00;101980.91;6021821;28;20043;-69
2022/11/13 13:01:22;;;;;;;36.00;14.02;;;;;;;6.51;100.00;101991.56;6022796;28;20121;-67
2022/11/13 13:04:27;;;;;;;40.03;15.82;;;;;;;6.51;100.00;101967.84;6025509;28;20466;-67
2022/11/13 13:07:41;;;;;;;40.33;15.50;;;;;;;6.56;100.00;101977.16;6025779;28;20045;-68
2022/11/13 13:11:14;;;;;;;33.78;12.70;;;;;;;6.62;100.00;101975.13;6025218;28;20042;-69
2022/11/13 13:14:54;;;;;;;39.40;17.00;;;;;;;6.57;100.00;101975.41;6026028;28;20030;-67
2022/11/13 13:18:01;;;;;;;46.78;19.38;;;;;;;6.50;100.00;101960.84;5986816;28;20158;-68
2022/11/13 13:20:56;;;;;;;46.25;16.60;;;;;;;6.57;100.00;101976.25;6014705;28;20434;-67
2022/11/13 13:23:52;;;;;;;38.97;13.57;;;;;;;6.33;100.00;101959.19;6023090;28;20041;-67
2022/11/13 13:26:47;;;;;;;34.95;13.02;;;;;;;6.26;100.00;101970.19;6022960;28;20034;-67
2022/11/13 13:29:42;;;;;;;36.13;13.23;;;;;;;6.27;100.00;101971.88;6022595;28;20050;-66
2022/11/13 13:33:03;;;;;;;37.47;15.63;;;;;;;6.31;100.00;101962.84;6022781;28;20265;-67